Ride Results

Kiwarrak Cup (10-07-2005)
Ride distance: 100.0 km Elevator

Outcomes - Kiwarrak Cup (10-07-2005)
Division No. of Entries Retired / DNE Completed Withdrawn Ineligible V/O Percentage Completed
HW 8 5 1 - - 2 75.00%
MW 14 10 1 - - 3 78.57%
LW 7 7 0 - - - 100.00%
JN 1 1 0 - - - 100.00%
Totals 30 23 2 - - 5 83.33%
Results - Kiwarrak Cup (10-07-2005)
No. Rider Horse Place Time Leg Speeds Total
Km/Hr
H/R bpm
Heavyweight
08 Bruce Turner Banjo McGuire 1 9:32:00 12.6, 10.1, 8.2 10.49 37, 43, 51, 48 (Avg:47)
01 Marylou Locke Ally Retired/DNE L2 6:24:00 13.6, 11.5 12.50 32, 45, 47 (Avg:46)
04 Phil Coleman Alnotarj Statistic Retired/DNE L2 7:18:00 11.5, 10.4 10.96 36, 41, 51 (Avg:46)
06 Denise Trollope Churinga Carrishka Retired/DNE L2 7:34:00 11.2, 9.9 10.57 36, 46, 50 (Avg:48)
05 John Briggs Dakila Renoasette Retired/DNE L2 8:22:00 10.0, 9.0 9.56 39, 40, 51 (Avg:45)
07 Allan Caslick Grelisa Park Semawi Shaklan Retired/DNE L2 8:43:00 9.8, 8.6 9.18 39, 41, 46 (Avg:43)
02 John Davidson Aloha Silver Domino Lame L2 0:00:00 13.0, 11.8 - 36, 40, 47 (Avg:43)
03 Virginia Blain Worobil Koradji Lame L1 0:00:00 11.5 - 34, 48 (Avg:48)
Middleweight
127 Megan Matters Tinderry Vista Armistice 1 8:54:00 13.3, 11.7, 7.9 11.24 33, 40, 46, 51 (Avg:45)
121 Robyn Hillier Marneross Maelaeki Retired/DNE L2 6:24:00 13.6, 11.5 12.50 34, 40, 52 (Avg:46)
129 Geoff Hurt Kejome Komet Retired/DNE L2 6:41:00 12.4, 11.5 11.97 30, 41, 48 (Avg:44)
124 Joanne Godwin Razorback Reflection Retired/DNE L2 6:44:00 13.2, 10.7 11.88 36, 42, 44 (Avg:43)
128 Sonya Ruprecht Jiah Bandit Retired/DNE L2 6:58:00 11.6, 11.3 11.48 38, 44, 48 (Avg:46)
130 Darryl King Wimsey Joshua Retired/DNE L2 7:07:00 12.6, 10.1 11.24 31, 37, 44 (Avg:40)
132 Tracy Haack Romac Anastasia Retired/DNE L2 7:26:00 11.9, 9.7 10.76 42, 46, 56 (Avg:51)
134 Suzanne Barton Mahazin Moonshine Retired/DNE L2 8:10:00 11.4, 8.5 9.80 30, 38, 42 (Avg:40)
133 Narelle Walkom Elle Espirit Retired/DNE L2 8:12:00 10.8, 8.8 9.76 33, 40, 40 (Avg:40)
123 Ellie Leister Amberwood Nemesia Retired/DNE L2 8:29:00 10.6, 8.4 9.43 42, 48, 55 (Avg:51)
131 Ben Caslick Nioka Park Nikita Retired/DNE L2 8:43:00 9.8, 8.6 9.18 31, 39, 49 (Avg:44)
122 Anne Hills Springmead Tawny Port Lame L3 0:00:00 14.3, 11.3, 7.7 - 32, 39, 42, 44 (Avg:41)
126 Luke Annetts Churinga Desire Lame L2 0:00:00 13.5, 11.8 - 41, 44, 50 (Avg:47)
125 Peter Kelly Wollumbin Faiz Lame L2 0:00:00 13.2, 10.7 - 36, 37, 41 (Avg:39)
Lightweight
54 Sue Todd Shamara Retired/DNE L2 6:24:00 13.3, 11.7 12.50 36, 50, 56 (Avg:53)
53 Janet Hurt Bern Retired/DNE L2 6:41:00 12.4, 11.5 11.97 32, 42, 48 (Avg:45)
57 Carol Layton Leshal Ikon Retired/DNE L2 7:06:00 12.6, 10.1 11.27 38, 37, 46 (Avg:41)
51 Emma McMurrich Amir Jasara Retired/DNE L2 7:18:00 11.2, 10.6 10.96 34, 44, 46 (Avg:45)
52 Ros Ryan Cosmic Flyte Retired/DNE L2 7:18:00 11.5, 10.4 10.96 38, 46, 50 (Avg:48)
56 Jan Wade Hajra Leonie Retired/DNE L2 8:29:00 10.6, 8.4 9.43 32, 39, 50 (Avg:44)
55 Shan Symons Hazeldean Essla Retired/DNE L2 8:43:00 9.8, 8.6 9.18 35, 39, 48 (Avg:43)
Junior
101 Hannah Barton Wattle Vale Florine Retired/DNE L2 8:10:00 11.4, 8.5 9.80 30, 34, 46 (Avg:40)